sensor_id;sensor_type;location;lat;lon;timestamp;P1;durP1;ratioP1;P2;durP2;ratioP2
15490;SDS011;7847;50.930;4.336;2023-10-19T00:00:46;0.30;;;0.30;;
15490;SDS011;7847;50.930;4.336;2023-10-19T00:03:16;0.30;;;0.30;;
15490;SDS011;7847;50.930;4.336;2023-10-19T00:05:42;0.30;;;0.30;;
15490;SDS011;7847;50.930;4.336;2023-10-19T00:08:10;0.30;;;0.30;;
15490;SDS011;7847;50.930;4.336;2023-10-19T00:10:47;0.30;;;0.30;;
15490;SDS011;7847;50.930;4.336;2023-10-19T00:13:15;0.35;;;0.35;;
15490;SDS011;7847;50.930;4.336;2023-10-19T00:15:44;0.30;;;0.30;;
15490;SDS011;7847;50.930;4.336;2023-10-19T00:18:15;0.30;;;0.30;;
15490;SDS011;7847;50.930;4.336;2023-10-19T00:20:41;0.30;;;0.30;;
15490;SDS011;7847;50.930;4.336;2023-10-19T00:23:11;0.30;;;0.30;;
15490;SDS011;7847;50.930;4.336;2023-10-19T00:25:38;0.30;;;0.30;;
15490;SDS011;7847;50.930;4.336;2023-10-19T00:28:06;0.30;;;0.30;;
15490;SDS011;7847;50.930;4.336;2023-10-19T00:30:33;0.30;;;0.30;;
15490;SDS011;7847;50.930;4.336;2023-10-19T00:33:01;0.30;;;0.30;;
15490;SDS011;7847;50.930;4.336;2023-10-19T00:35:35;0.30;;;0.30;;
15490;SDS011;7847;50.930;4.336;2023-10-19T00:38:01;0.30;;;0.30;;
15490;SDS011;7847;50.930;4.336;2023-10-19T00:40:53;0.30;;;0.30;;
15490;SDS011;7847;50.930;4.336;2023-10-19T00:43:30;0.30;;;0.30;;
15490;SDS011;7847;50.930;4.336;2023-10-19T00:46:07;0.30;;;0.30;;
15490;SDS011;7847;50.930;4.336;2023-10-19T00:48:47;0.30;;;0.30;;
15490;SDS011;7847;50.930;4.336;2023-10-19T00:51:19;0.30;;;0.30;;
15490;SDS011;7847;50.930;4.336;2023-10-19T00:53:56;0.30;;;0.30;;
15490;SDS011;7847;50.930;4.336;2023-10-19T00:56:24;0.30;;;0.30;;
15490;SDS011;7847;50.930;4.336;2023-10-19T00:58:56;0.30;;;0.30;;
15490;SDS011;7847;50.930;4.336;2023-10-19T01:01:32;0.30;;;0.30;;
15490;SDS011;7847;50.930;4.336;2023-10-19T01:04:01;0.30;;;0.30;;
15490;SDS011;7847;50.930;4.336;2023-10-19T01:06:29;0.30;;;0.30;;
15490;SDS011;7847;50.930;4.336;2023-10-19T01:08:58;0.30;;;0.30;;
15490;SDS011;7847;50.930;4.336;2023-10-19T01:11:24;0.30;;;0.30;;
15490;SDS011;7847;50.930;4.336;2023-10-19T01:13:53;0.30;;;0.30;;
15490;SDS011;7847;50.930;4.336;2023-10-19T01:16:20;0.22;;;0.22;;
15490;SDS011;7847;50.930;4.336;2023-10-19T01:18:50;0.30;;;0.30;;
15490;SDS011;7847;50.930;4.336;2023-10-19T01:21:19;0.30;;;0.30;;
15490;SDS011;7847;50.930;4.336;2023-10-19T01:23:46;0.30;;;0.30;;
15490;SDS011;7847;50.930;4.336;2023-10-19T01:26:13;0.30;;;0.30;;
15490;SDS011;7847;50.930;4.336;2023-10-19T01:28:46;0.30;;;0.30;;
15490;SDS011;7847;50.930;4.336;2023-10-19T01:31:13;0.20;;;0.20;;
15490;SDS011;7847;50.930;4.336;2023-10-19T01:33:41;0.30;;;0.30;;
15490;SDS011;7847;50.930;4.336;2023-10-19T01:36:08;0.30;;;0.30;;
15490;SDS011;7847;50.930;4.336;2023-10-19T01:38:39;0.30;;;0.30;;
15490;SDS011;7847;50.930;4.336;2023-10-19T01:41:06;0.30;;;0.30;;
15490;SDS011;7847;50.930;4.336;2023-10-19T01:43:53;0.30;;;0.30;;
15490;SDS011;7847;50.930;4.336;2023-10-19T01:46:20;0.30;;;0.30;;
15490;SDS011;7847;50.930;4.336;2023-10-19T01:48:50;0.30;;;0.30;;
15490;SDS011;7847;50.930;4.336;2023-10-19T01:51:21;0.30;;;0.30;;
15490;SDS011;7847;50.930;4.336;2023-10-19T01:53:48;0.20;;;0.20;;
15490;SDS011;7847;50.930;4.336;2023-10-19T01:56:15;0.30;;;0.30;;
15490;SDS011;7847;50.930;4.336;2023-10-19T01:58:47;0.30;;;0.30;;
15490;SDS011;7847;50.930;4.336;2023-10-19T02:01:14;0.30;;;0.30;;
15490;SDS011;7847;50.930;4.336;2023-10-19T02:03:53;0.30;;;0.30;;
15490;SDS011;7847;50.930;4.336;2023-10-19T02:06:20;0.30;;;0.30;;
15490;SDS011;7847;50.930;4.336;2023-10-19T02:08:52;0.30;;;0.30;;
15490;SDS011;7847;50.930;4.336;2023-10-19T02:11:22;0.30;;;0.30;;
15490;SDS011;7847;50.930;4.336;2023-10-19T02:13:49;0.30;;;0.30;;
15490;SDS011;7847;50.930;4.336;2023-10-19T02:16:18;0.30;;;0.30;;
15490;SDS011;7847;50.930;4.336;2023-10-19T02:18:48;0.30;;;0.30;;
15490;SDS011;7847;50.930;4.336;2023-10-19T02:21:15;0.20;;;0.20;;
15490;SDS011;7847;50.930;4.336;2023-10-19T02:23:47;0.30;;;0.30;;
15490;SDS011;7847;50.930;4.336;2023-10-19T02:26:15;0.30;;;0.30;;
15490;SDS011;7847;50.930;4.336;2023-10-19T02:28:41;0.30;;;0.30;;
15490;SDS011;7847;50.930;4.336;2023-10-19T02:31:09;0.30;;;0.30;;
15490;SDS011;7847;50.930;4.336;2023-10-19T02:33:46;0.30;;;0.30;;
15490;SDS011;7847;50.930;4.336;2023-10-19T02:36:17;0.30;;;0.30;;
15490;SDS011;7847;50.930;4.336;2023-10-19T02:38:44;0.20;;;0.20;;
15490;SDS011;7847;50.930;4.336;2023-10-19T02:41:20;0.30;;;0.30;;
15490;SDS011;7847;50.930;4.336;2023-10-19T02:43:46;0.30;;;0.30;;
15490;SDS011;7847;50.930;4.336;2023-10-19T02:46:16;0.30;;;0.30;;
15490;SDS011;7847;50.930;4.336;2023-10-19T02:48:45;0.20;;;0.20;;
15490;SDS011;7847;50.930;4.336;2023-10-19T02:51:15;0.30;;;0.30;;
15490;SDS011;7847;50.930;4.336;2023-10-19T02:53:44;0.30;;;0.30;;
15490;SDS011;7847;50.930;4.336;2023-10-19T02:56:13;0.30;;;0.30;;
15490;SDS011;7847;50.930;4.336;2023-10-19T02:58:44;0.20;;;0.20;;
15490;SDS011;7847;50.930;4.336;2023-10-19T03:01:14;0.30;;;0.30;;
15490;SDS011;7847;50.930;4.336;2023-10-19T03:03:46;0.30;;;0.30;;
15490;SDS011;7847;50.930;4.336;2023-10-19T03:06:14;0.30;;;0.30;;
15490;SDS011;7847;50.930;4.336;2023-10-19T03:08:40;0.20;;;0.20;;
15490;SDS011;7847;50.930;4.336;2023-10-19T03:11:06;0.20;;;0.20;;
15490;SDS011;7847;50.930;4.336;2023-10-19T03:13:32;0.30;;;0.30;;
15490;SDS011;7847;50.930;4.336;2023-10-19T03:16:01;0.30;;;0.30;;
15490;SDS011;7847;50.930;4.336;2023-10-19T03:18:32;0.30;;;0.30;;
15490;SDS011;7847;50.930;4.336;2023-10-19T03:20:58;0.30;;;0.30;;
15490;SDS011;7847;50.930;4.336;2023-10-19T03:23:24;0.20;;;0.20;;
15490;SDS011;7847;50.930;4.336;2023-10-19T03:25:55;0.30;;;0.30;;
15490;SDS011;7847;50.930;4.336;2023-10-19T03:28:40;0.20;;;0.20;;
15490;SDS011;7847;50.930;4.336;2023-10-19T03:31:07;0.30;;;0.30;;
15490;SDS011;7847;50.930;4.336;2023-10-19T03:33:34;0.20;;;0.20;;
15490;SDS011;7847;50.930;4.336;2023-10-19T03:36:01;0.30;;;0.30;;
15490;SDS011;7847;50.930;4.336;2023-10-19T03:38:29;0.30;;;0.30;;
15490;SDS011;7847;50.930;4.336;2023-10-19T03:41:01;0.30;;;0.30;;
15490;SDS011;7847;50.930;4.336;2023-10-19T03:43:32;0.30;;;0.30;;
15490;SDS011;7847;50.930;4.336;2023-10-19T03:45:58;0.30;;;0.30;;
15490;SDS011;7847;50.930;4.336;2023-10-19T03:48:29;0.30;;;0.30;;
15490;SDS011;7847;50.930;4.336;2023-10-19T03:51:02;0.30;;;0.30;;
15490;SDS011;7847;50.930;4.336;2023-10-19T03:53:28;0.30;;;0.30;;
15490;SDS011;7847;50.930;4.336;2023-10-19T03:55:55;0.30;;;0.30;;
15490;SDS011;7847;50.930;4.336;2023-10-19T03:58:22;0.30;;;0.30;;
15490;SDS011;7847;50.930;4.336;2023-10-19T04:00:48;0.30;;;0.30;;
15490;SDS011;7847;50.930;4.336;2023-10-19T04:03:15;0.30;;;0.30;;
15490;SDS011;7847;50.930;4.336;2023-10-19T04:05:42;0.30;;;0.30;;
15490;SDS011;7847;50.930;4.336;2023-10-19T04:08:11;0.30;;;0.30;;
15490;SDS011;7847;50.930;4.336;2023-10-19T04:10:39;0.30;;;0.30;;
15490;SDS011;7847;50.930;4.336;2023-10-19T04:13:09;0.20;;;0.20;;
15490;SDS011;7847;50.930;4.336;2023-10-19T04:15:36;0.20;;;0.20;;
15490;SDS011;7847;50.930;4.336;2023-10-19T04:18:02;0.30;;;0.30;;
15490;SDS011;7847;50.930;4.336;2023-10-19T04:20:36;0.30;;;0.30;;
15490;SDS011;7847;50.930;4.336;2023-10-19T04:23:17;0.30;;;0.30;;
15490;SDS011;7847;50.930;4.336;2023-10-19T04:25:43;0.30;;;0.30;;
15490;SDS011;7847;50.930;4.336;2023-10-19T04:28:12;0.30;;;0.30;;
15490;SDS011;7847;50.930;4.336;2023-10-19T04:30:46;0.30;;;0.30;;
15490;SDS011;7847;50.930;4.336;2023-10-19T04:33:13;0.30;;;0.30;;
15490;SDS011;7847;50.930;4.336;2023-10-19T04:35:41;0.30;;;0.30;;
15490;SDS011;7847;50.930;4.336;2023-10-19T04:38:07;0.30;;;0.30;;
15490;SDS011;7847;50.930;4.336;2023-10-19T04:40:33;0.30;;;0.30;;
15490;SDS011;7847;50.930;4.336;2023-10-19T04:43:02;0.30;;;0.30;;
15490;SDS011;7847;50.930;4.336;2023-10-19T04:45:31;0.30;;;0.30;;
15490;SDS011;7847;50.930;4.336;2023-10-19T04:47:57;0.30;;;0.30;;
15490;SDS011;7847;50.930;4.336;2023-10-19T04:50:23;0.30;;;0.30;;
15490;SDS011;7847;50.930;4.336;2023-10-19T04:52:49;0.30;;;0.30;;
15490;SDS011;7847;50.930;4.336;2023-10-19T04:55:15;0.30;;;0.30;;
15490;SDS011;7847;50.930;4.336;2023-10-19T04:57:41;0.30;;;0.30;;
15490;SDS011;7847;50.930;4.336;2023-10-19T05:00:07;0.30;;;0.30;;
15490;SDS011;7847;50.930;4.336;2023-10-19T05:02:38;0.30;;;0.30;;
15490;SDS011;7847;50.930;4.336;2023-10-19T05:05:04;0.30;;;0.30;;
15490;SDS011;7847;50.930;4.336;2023-10-19T05:07:30;0.30;;;0.30;;
15490;SDS011;7847;50.930;4.336;2023-10-19T05:09:56;0.30;;;0.30;;
15490;SDS011;7847;50.930;4.336;2023-10-19T05:12:24;0.30;;;0.30;;
15490;SDS011;7847;50.930;4.336;2023-10-19T05:14:50;0.28;;;0.28;;
15490;SDS011;7847;50.930;4.336;2023-10-19T05:17:16;0.30;;;0.30;;
15490;SDS011;7847;50.930;4.336;2023-10-19T05:19:46;0.20;;;0.20;;
15490;SDS011;7847;50.930;4.336;2023-10-19T05:22:12;0.30;;;0.30;;
15490;SDS011;7847;50.930;4.336;2023-10-19T05:24:38;0.25;;;0.25;;
15490;SDS011;7847;50.930;4.336;2023-10-19T05:27:04;0.30;;;0.30;;
15490;SDS011;7847;50.930;4.336;2023-10-19T05:29:33;0.30;;;0.30;;
15490;SDS011;7847;50.930;4.336;2023-10-19T05:31:59;0.30;;;0.30;;
15490;SDS011;7847;50.930;4.336;2023-10-19T05:34:25;0.30;;;0.30;;
15490;SDS011;7847;50.930;4.336;2023-10-19T05:36:54;0.30;;;0.30;;
15490;SDS011;7847;50.930;4.336;2023-10-19T05:39:23;0.30;;;0.30;;
15490;SDS011;7847;50.930;4.336;2023-10-19T05:41:53;0.30;;;0.30;;
15490;SDS011;7847;50.930;4.336;2023-10-19T05:44:19;0.30;;;0.30;;
15490;SDS011;7847;50.930;4.336;2023-10-19T05:46:45;0.30;;;0.30;;
15490;SDS011;7847;50.930;4.336;2023-10-19T05:49:12;0.30;;;0.30;;
15490;SDS011;7847;50.930;4.336;2023-10-19T05:51:38;0.30;;;0.30;;
15490;SDS011;7847;50.930;4.336;2023-10-19T05:54:06;0.30;;;0.30;;
15490;SDS011;7847;50.930;4.336;2023-10-19T05:56:33;0.20;;;0.20;;
15490;SDS011;7847;50.930;4.336;2023-10-19T05:58:59;0.30;;;0.30;;
15490;SDS011;7847;50.930;4.336;2023-10-19T06:01:26;0.30;;;0.30;;
15490;SDS011;7847;50.930;4.336;2023-10-19T06:03:52;0.30;;;0.30;;
15490;SDS011;7847;50.930;4.336;2023-10-19T06:06:21;0.30;;;0.30;;
15490;SDS011;7847;50.930;4.336;2023-10-19T06:08:47;0.22;;;0.22;;
15490;SDS011;7847;50.930;4.336;2023-10-19T06:11:18;0.20;;;0.20;;
15490;SDS011;7847;50.930;4.336;2023-10-19T06:13:44;0.30;;;0.30;;
15490;SDS011;7847;50.930;4.336;2023-10-19T06:16:11;0.30;;;0.30;;
15490;SDS011;7847;50.930;4.336;2023-10-19T06:18:37;0.30;;;0.30;;
15490;SDS011;7847;50.930;4.336;2023-10-19T06:21:03;0.30;;;0.30;;
15490;SDS011;7847;50.930;4.336;2023-10-19T06:23:29;0.20;;;0.20;;
15490;SDS011;7847;50.930;4.336;2023-10-19T06:25:56;0.30;;;0.30;;
15490;SDS011;7847;50.930;4.336;2023-10-19T06:28:22;0.30;;;0.30;;
15490;SDS011;7847;50.930;4.336;2023-10-19T06:30:49;0.30;;;0.30;;
15490;SDS011;7847;50.930;4.336;2023-10-19T06:33:16;0.30;;;0.30;;
15490;SDS011;7847;50.930;4.336;2023-10-19T06:35:42;0.30;;;0.30;;
15490;SDS011;7847;50.930;4.336;2023-10-19T06:38:08;0.30;;;0.30;;
15490;SDS011;7847;50.930;4.336;2023-10-19T06:40:34;0.30;;;0.30;;
15490;SDS011;7847;50.930;4.336;2023-10-19T06:43:04;0.30;;;0.30;;
15490;SDS011;7847;50.930;4.336;2023-10-19T06:45:30;0.30;;;0.30;;
15490;SDS011;7847;50.930;4.336;2023-10-19T06:47:56;0.20;;;0.20;;
15490;SDS011;7847;50.930;4.336;2023-10-19T06:50:25;0.30;;;0.30;;
15490;SDS011;7847;50.930;4.336;2023-10-19T06:52:51;0.30;;;0.30;;
15490;SDS011;7847;50.930;4.336;2023-10-19T06:55:17;0.30;;;0.30;;
15490;SDS011;7847;50.930;4.336;2023-10-19T06:57:48;0.28;;;0.28;;
15490;SDS011;7847;50.930;4.336;2023-10-19T07:00:15;0.30;;;0.30;;
15490;SDS011;7847;50.930;4.336;2023-10-19T07:02:45;0.30;;;0.30;;
15490;SDS011;7847;50.930;4.336;2023-10-19T07:05:11;0.30;;;0.30;;
15490;SDS011;7847;50.930;4.336;2023-10-19T07:07:42;0.22;;;0.22;;
15490;SDS011;7847;50.930;4.336;2023-10-19T07:10:08;0.30;;;0.30;;
15490;SDS011;7847;50.930;4.336;2023-10-19T07:12:37;0.30;;;0.30;;
15490;SDS011;7847;50.930;4.336;2023-10-19T07:15:06;0.20;;;0.20;;
15490;SDS011;7847;50.930;4.336;2023-10-19T07:17:35;0.20;;;0.20;;
15490;SDS011;7847;50.930;4.336;2023-10-19T07:20:03;0.30;;;0.30;;
15490;SDS011;7847;50.930;4.336;2023-10-19T07:22:31;0.30;;;0.30;;
15490;SDS011;7847;50.930;4.336;2023-10-19T07:24:57;0.30;;;0.30;;
15490;SDS011;7847;50.930;4.336;2023-10-19T07:27:23;0.20;;;0.20;;
15490;SDS011;7847;50.930;4.336;2023-10-19T07:29:52;0.30;;;0.30;;
15490;SDS011;7847;50.930;4.336;2023-10-19T07:32:18;0.30;;;0.30;;
15490;SDS011;7847;50.930;4.336;2023-10-19T07:34:44;0.30;;;0.30;;
15490;SDS011;7847;50.930;4.336;2023-10-19T07:37:11;0.30;;;0.30;;
15490;SDS011;7847;50.930;4.336;2023-10-19T07:39:49;0.30;;;0.30;;
15490;SDS011;7847;50.930;4.336;2023-10-19T07:42:18;0.30;;;0.30;;
15490;SDS011;7847;50.930;4.336;2023-10-19T07:44:46;0.30;;;0.30;;
15490;SDS011;7847;50.930;4.336;2023-10-19T07:47:12;0.30;;;0.30;;
15490;SDS011;7847;50.930;4.336;2023-10-19T07:49:38;0.20;;;0.20;;
15490;SDS011;7847;50.930;4.336;2023-10-19T07:52:07;0.30;;;0.30;;
15490;SDS011;7847;50.930;4.336;2023-10-19T07:54:35;0.30;;;0.30;;
15490;SDS011;7847;50.930;4.336;2023-10-19T07:57:02;0.20;;;0.20;;
15490;SDS011;7847;50.930;4.336;2023-10-19T07:59:30;0.20;;;0.20;;
15490;SDS011;7847;50.930;4.336;2023-10-19T08:01:56;0.25;;;0.25;;
15490;SDS011;7847;50.930;4.336;2023-10-19T08:04:22;0.30;;;0.30;;
15490;SDS011;7847;50.930;4.336;2023-10-19T08:06:50;0.30;;;0.30;;
15490;SDS011;7847;50.930;4.336;2023-10-19T08:09:16;0.20;;;0.20;;
15490;SDS011;7847;50.930;4.336;2023-10-19T08:11:48;0.30;;;0.30;;
15490;SDS011;7847;50.930;4.336;2023-10-19T08:14:14;0.30;;;0.30;;
15490;SDS011;7847;50.930;4.336;2023-10-19T08:16:40;0.20;;;0.20;;
15490;SDS011;7847;50.930;4.336;2023-10-19T08:19:08;0.30;;;0.30;;
15490;SDS011;7847;50.930;4.336;2023-10-19T08:21:34;0.30;;;0.30;;
15490;SDS011;7847;50.930;4.336;2023-10-19T08:24:00;0.30;;;0.30;;
15490;SDS011;7847;50.930;4.336;2023-10-19T08:26:29;0.30;;;0.30;;
15490;SDS011;7847;50.930;4.336;2023-10-19T08:28:55;0.30;;;0.30;;
15490;SDS011;7847;50.930;4.336;2023-10-19T08:31:24;0.20;;;0.20;;
15490;SDS011;7847;50.930;4.336;2023-10-19T08:33:50;0.20;;;0.20;;
15490;SDS011;7847;50.930;4.336;2023-10-19T08:36:17;0.30;;;0.30;;
15490;SDS011;7847;50.930;4.336;2023-10-19T08:38:44;0.20;;;0.20;;
15490;SDS011;7847;50.930;4.336;2023-10-19T08:41:10;0.30;;;0.30;;
15490;SDS011;7847;50.930;4.336;2023-10-19T08:43:36;0.20;;;0.20;;
15490;SDS011;7847;50.930;4.336;2023-10-19T08:46:05;0.20;;;0.20;;
15490;SDS011;7847;50.930;4.336;2023-10-19T08:48:35;0.28;;;0.28;;
15490;SDS011;7847;50.930;4.336;2023-10-19T08:51:08;0.28;;;0.28;;
15490;SDS011;7847;50.930;4.336;2023-10-19T08:53:36;0.30;;;0.30;;
15490;SDS011;7847;50.930;4.336;2023-10-19T08:56:06;0.20;;;0.20;;
15490;SDS011;7847;50.930;4.336;2023-10-19T08:58:32;0.20;;;0.20;;
15490;SDS011;7847;50.930;4.336;2023-10-19T09:00:58;0.20;;;0.20;;
15490;SDS011;7847;50.930;4.336;2023-10-19T09:03:31;0.20;;;0.20;;
15490;SDS011;7847;50.930;4.336;2023-10-19T09:05:59;0.20;;;0.20;;
15490;SDS011;7847;50.930;4.336;2023-10-19T09:08:26;0.20;;;0.20;;
15490;SDS011;7847;50.930;4.336;2023-10-19T09:11:12;0.30;;;0.30;;
15490;SDS011;7847;50.930;4.336;2023-10-19T09:13:45;0.30;;;0.30;;
15490;SDS011;7847;50.930;4.336;2023-10-19T09:16:12;0.20;;;0.20;;
15490;SDS011;7847;50.930;4.336;2023-10-19T09:18:39;0.20;;;0.20;;
15490;SDS011;7847;50.930;4.336;2023-10-19T09:21:06;0.20;;;0.20;;
15490;SDS011;7847;50.930;4.336;2023-10-19T09:23:33;0.20;;;0.20;;
15490;SDS011;7847;50.930;4.336;2023-10-19T09:26:00;0.20;;;0.20;;
15490;SDS011;7847;50.930;4.336;2023-10-19T09:28:28;0.20;;;0.20;;
15490;SDS011;7847;50.930;4.336;2023-10-19T09:30:55;0.30;;;0.30;;
15490;SDS011;7847;50.930;4.336;2023-10-19T09:33:21;0.20;;;0.20;;
15490;SDS011;7847;50.930;4.336;2023-10-19T09:35:49;0.20;;;0.20;;
15490;SDS011;7847;50.930;4.336;2023-10-19T09:38:21;0.30;;;0.30;;
15490;SDS011;7847;50.930;4.336;2023-10-19T09:40:47;0.20;;;0.20;;
15490;SDS011;7847;50.930;4.336;2023-10-19T09:43:37;0.20;;;0.20;;
15490;SDS011;7847;50.930;4.336;2023-10-19T09:46:01;0.20;;;0.20;;
15490;SDS011;7847;50.930;4.336;2023-10-19T09:48:27;0.20;;;0.20;;
15490;SDS011;7847;50.930;4.336;2023-10-19T09:50:54;0.20;;;0.20;;
15490;SDS011;7847;50.930;4.336;2023-10-19T09:53:23;0.20;;;0.20;;
15490;SDS011;7847;50.930;4.336;2023-10-19T09:55:51;0.22;;;0.22;;
15490;SDS011;7847;50.930;4.336;2023-10-19T09:58:19;0.20;;;0.20;;
15490;SDS011;7847;50.930;4.336;2023-10-19T10:00:47;0.20;;;0.20;;
15490;SDS011;7847;50.930;4.336;2023-10-19T10:06:01;0.20;;;0.20;;
15490;SDS011;7847;50.930;4.336;2023-10-19T10:08:29;0.20;;;0.20;;
15490;SDS011;7847;50.930;4.336;2023-10-19T10:10:55;0.30;;;0.30;;
15490;SDS011;7847;50.930;4.336;2023-10-19T10:15:57;0.20;;;0.20;;
15490;SDS011;7847;50.930;4.336;2023-10-19T10:18:26;0.20;;;0.20;;
15490;SDS011;7847;50.930;4.336;2023-10-19T10:21:12;0.20;;;0.20;;
15490;SDS011;7847;50.930;4.336;2023-10-19T10:26:08;0.20;;;0.20;;
15490;SDS011;7847;50.930;4.336;2023-10-19T10:28:34;0.20;;;0.20;;
15490;SDS011;7847;50.930;4.336;2023-10-19T10:31:09;0.20;;;0.20;;
15490;SDS011;7847;50.930;4.336;2023-10-19T10:33:51;0.20;;;0.20;;
15490;SDS011;7847;50.930;4.336;2023-10-19T10:36:19;0.20;;;0.20;;
15490;SDS011;7847;50.930;4.336;2023-10-19T10:38:56;0.20;;;0.20;;
15490;SDS011;7847;50.930;4.336;2023-10-19T10:41:30;0.20;;;0.20;;
15490;SDS011;7847;50.930;4.336;2023-10-19T10:43:57;0.20;;;0.20;;
15490;SDS011;7847;50.930;4.336;2023-10-19T10:46:24;0.20;;;0.20;;
15490;SDS011;7847;50.930;4.336;2023-10-19T10:48:51;0.20;;;0.20;;
15490;SDS011;7847;50.930;4.336;2023-10-19T10:51:17;0.20;;;0.20;;
15490;SDS011;7847;50.930;4.336;2023-10-19T10:53:46;0.20;;;0.20;;
15490;SDS011;7847;50.930;4.336;2023-10-19T10:56:12;0.20;;;0.20;;
15490;SDS011;7847;50.930;4.336;2023-10-19T10:58:38;0.20;;;0.20;;
15490;SDS011;7847;50.930;4.336;2023-10-19T11:01:05;0.20;;;0.20;;
15490;SDS011;7847;50.930;4.336;2023-10-19T11:03:31;0.20;;;0.20;;
15490;SDS011;7847;50.930;4.336;2023-10-19T11:06:06;0.20;;;0.20;;
15490;SDS011;7847;50.930;4.336;2023-10-19T11:08:36;0.20;;;0.20;;
15490;SDS011;7847;50.930;4.336;2023-10-19T11:11:04;0.25;;;0.25;;
15490;SDS011;7847;50.930;4.336;2023-10-19T11:13:30;0.20;;;0.20;;
15490;SDS011;7847;50.930;4.336;2023-10-19T11:16:02;0.30;;;0.30;;
15490;SDS011;7847;50.930;4.336;2023-10-19T11:21:01;0.20;;;0.20;;
15490;SDS011;7847;50.930;4.336;2023-10-19T11:23:41;0.20;;;0.20;;
15490;SDS011;7847;50.930;4.336;2023-10-19T11:26:08;0.20;;;0.20;;
15490;SDS011;7847;50.930;4.336;2023-10-19T11:28:35;0.20;;;0.20;;
15490;SDS011;7847;50.930;4.336;2023-10-19T11:31:11;0.20;;;0.20;;
15490;SDS011;7847;50.930;4.336;2023-10-19T11:33:40;0.20;;;0.20;;
15490;SDS011;7847;50.930;4.336;2023-10-19T11:36:06;0.20;;;0.20;;
15490;SDS011;7847;50.930;4.336;2023-10-19T11:38:32;0.20;;;0.20;;
15490;SDS011;7847;50.930;4.336;2023-10-19T11:40:58;0.20;;;0.20;;
15490;SDS011;7847;50.930;4.336;2023-10-19T11:43:24;0.20;;;0.20;;
15490;SDS011;7847;50.930;4.336;2023-10-19T11:45:51;0.20;;;0.20;;
15490;SDS011;7847;50.930;4.336;2023-10-19T11:48:17;0.20;;;0.20;;
15490;SDS011;7847;50.930;4.336;2023-10-19T11:50:43;0.20;;;0.20;;
15490;SDS011;7847;50.930;4.336;2023-10-19T11:53:09;0.20;;;0.20;;
15490;SDS011;7847;50.930;4.336;2023-10-19T11:55:35;0.20;;;0.20;;
15490;SDS011;7847;50.930;4.336;2023-10-19T11:58:01;0.20;;;0.20;;
15490;SDS011;7847;50.930;4.336;2023-10-19T12:00:27;0.20;;;0.20;;
15490;SDS011;7847;50.930;4.336;2023-10-19T12:02:59;0.20;;;0.20;;
15490;SDS011;7847;50.930;4.336;2023-10-19T12:05:25;0.20;;;0.20;;
15490;SDS011;7847;50.930;4.336;2023-10-19T12:07:51;0.20;;;0.20;;
15490;SDS011;7847;50.930;4.336;2023-10-19T12:10:17;0.20;;;0.20;;
15490;SDS011;7847;50.930;4.336;2023-10-19T12:12:45;0.20;;;0.20;;
15490;SDS011;7847;50.930;4.336;2023-10-19T12:15:11;0.20;;;0.20;;
15490;SDS011;7847;50.930;4.336;2023-10-19T12:17:37;0.20;;;0.20;;
15490;SDS011;7847;50.930;4.336;2023-10-19T12:20:03;0.20;;;0.20;;
15490;SDS011;7847;50.930;4.336;2023-10-19T12:22:31;0.20;;;0.20;;
15490;SDS011;7847;50.930;4.336;2023-10-19T12:25:03;0.20;;;0.20;;
15490;SDS011;7847;50.930;4.336;2023-10-19T12:27:30;0.20;;;0.20;;
15490;SDS011;7847;50.930;4.336;2023-10-19T12:29:56;0.20;;;0.20;;
15490;SDS011;7847;50.930;4.336;2023-10-19T12:32:24;0.20;;;0.20;;
15490;SDS011;7847;50.930;4.336;2023-10-19T12:34:51;0.20;;;0.20;;
15490;SDS011;7847;50.930;4.336;2023-10-19T12:37:22;0.20;;;0.20;;
15490;SDS011;7847;50.930;4.336;2023-10-19T12:39:49;0.20;;;0.20;;
15490;SDS011;7847;50.930;4.336;2023-10-19T12:42:16;0.20;;;0.20;;
15490;SDS011;7847;50.930;4.336;2023-10-19T12:44:42;0.20;;;0.20;;
15490;SDS011;7847;50.930;4.336;2023-10-19T12:47:09;0.20;;;0.20;;
15490;SDS011;7847;50.930;4.336;2023-10-19T12:49:38;0.20;;;0.20;;
15490;SDS011;7847;50.930;4.336;2023-10-19T12:52:04;0.20;;;0.20;;
15490;SDS011;7847;50.930;4.336;2023-10-19T12:54:32;0.20;;;0.20;;
15490;SDS011;7847;50.930;4.336;2023-10-19T12:56:59;0.20;;;0.20;;
15490;SDS011;7847;50.930;4.336;2023-10-19T12:59:26;0.20;;;0.20;;
15490;SDS011;7847;50.930;4.336;2023-10-19T13:01:52;0.20;;;0.20;;
15490;SDS011;7847;50.930;4.336;2023-10-19T13:04:23;0.20;;;0.20;;
15490;SDS011;7847;50.930;4.336;2023-10-19T13:06:49;0.20;;;0.20;;
15490;SDS011;7847;50.930;4.336;2023-10-19T13:09:16;0.20;;;0.20;;
15490;SDS011;7847;50.930;4.336;2023-10-19T13:11:47;0.20;;;0.20;;
15490;SDS011;7847;50.930;4.336;2023-10-19T13:14:17;0.20;;;0.20;;
15490;SDS011;7847;50.930;4.336;2023-10-19T13:16:43;0.20;;;0.20;;
15490;SDS011;7847;50.930;4.336;2023-10-19T13:19:09;0.20;;;0.20;;
15490;SDS011;7847;50.930;4.336;2023-10-19T13:21:39;0.20;;;0.20;;
15490;SDS011;7847;50.930;4.336;2023-10-19T13:24:07;0.10;;;0.10;;
15490;SDS011;7847;50.930;4.336;2023-10-19T13:26:33;0.10;;;0.10;;
15490;SDS011;7847;50.930;4.336;2023-10-19T13:28:59;0.20;;;0.20;;
15490;SDS011;7847;50.930;4.336;2023-10-19T13:31:26;0.20;;;0.20;;
15490;SDS011;7847;50.930;4.336;2023-10-19T13:33:52;0.20;;;0.20;;
15490;SDS011;7847;50.930;4.336;2023-10-19T13:36:19;0.20;;;0.20;;
15490;SDS011;7847;50.930;4.336;2023-10-19T13:38:45;0.20;;;0.20;;
15490;SDS011;7847;50.930;4.336;2023-10-19T13:41:11;0.13;;;0.13;;
15490;SDS011;7847;50.930;4.336;2023-10-19T13:43:39;0.20;;;0.20;;
15490;SDS011;7847;50.930;4.336;2023-10-19T13:46:07;0.20;;;0.20;;
15490;SDS011;7847;50.930;4.336;2023-10-19T13:48:33;0.10;;;0.10;;
15490;SDS011;7847;50.930;4.336;2023-10-19T13:50:59;0.20;;;0.20;;
15490;SDS011;7847;50.930;4.336;2023-10-19T13:53:26;0.20;;;0.20;;
15490;SDS011;7847;50.930;4.336;2023-10-19T13:55:52;0.20;;;0.20;;
15490;SDS011;7847;50.930;4.336;2023-10-19T13:58:18;0.20;;;0.20;;
15490;SDS011;7847;50.930;4.336;2023-10-19T14:00:44;0.20;;;0.20;;
15490;SDS011;7847;50.930;4.336;2023-10-19T14:03:11;0.20;;;0.20;;
15490;SDS011;7847;50.930;4.336;2023-10-19T14:05:45;0.20;;;0.20;;
15490;SDS011;7847;50.930;4.336;2023-10-19T14:08:18;0.20;;;0.20;;
15490;SDS011;7847;50.930;4.336;2023-10-19T14:10:45;0.20;;;0.20;;
15490;SDS011;7847;50.930;4.336;2023-10-19T14:13:12;0.20;;;0.20;;
15490;SDS011;7847;50.930;4.336;2023-10-19T14:15:39;0.20;;;0.20;;
15490;SDS011;7847;50.930;4.336;2023-10-19T14:18:05;0.20;;;0.20;;
15490;SDS011;7847;50.930;4.336;2023-10-19T14:20:32;0.20;;;0.20;;
15490;SDS011;7847;50.930;4.336;2023-10-19T14:22:59;0.20;;;0.20;;
15490;SDS011;7847;50.930;4.336;2023-10-19T14:25:26;0.20;;;0.20;;
15490;SDS011;7847;50.930;4.336;2023-10-19T14:27:54;0.10;;;0.10;;
15490;SDS011;7847;50.930;4.336;2023-10-19T14:30:31;0.13;;;0.13;;
15490;SDS011;7847;50.930;4.336;2023-10-19T14:32:57;0.15;;;0.15;;
15490;SDS011;7847;50.930;4.336;2023-10-19T14:35:24;0.10;;;0.10;;
15490;SDS011;7847;50.930;4.336;2023-10-19T14:37:51;0.20;;;0.20;;
15490;SDS011;7847;50.930;4.336;2023-10-19T14:40:20;0.20;;;0.20;;
15490;SDS011;7847;50.930;4.336;2023-10-19T14:42:48;0.10;;;0.10;;
15490;SDS011;7847;50.930;4.336;2023-10-19T14:45:18;0.20;;;0.20;;
15490;SDS011;7847;50.930;4.336;2023-10-19T14:47:48;0.20;;;0.20;;
15490;SDS011;7847;50.930;4.336;2023-10-19T14:50:16;0.20;;;0.20;;
15490;SDS011;7847;50.930;4.336;2023-10-19T14:52:47;0.13;;;0.13;;
15490;SDS011;7847;50.930;4.336;2023-10-19T14:55:13;0.20;;;0.20;;
15490;SDS011;7847;50.930;4.336;2023-10-19T14:57:41;0.20;;;0.20;;
15490;SDS011;7847;50.930;4.336;2023-10-19T15:00:08;0.10;;;0.10;;
15490;SDS011;7847;50.930;4.336;2023-10-19T15:02:47;0.20;;;0.20;;
15490;SDS011;7847;50.930;4.336;2023-10-19T15:05:14;0.10;;;0.10;;
15490;SDS011;7847;50.930;4.336;2023-10-19T15:07:44;0.20;;;0.20;;
15490;SDS011;7847;50.930;4.336;2023-10-19T15:10:11;0.20;;;0.20;;
15490;SDS011;7847;50.930;4.336;2023-10-19T15:12:40;0.10;;;0.10;;
15490;SDS011;7847;50.930;4.336;2023-10-19T15:15:07;0.20;;;0.20;;
15490;SDS011;7847;50.930;4.336;2023-10-19T15:17:39;0.20;;;0.20;;